Checotah, Oklahoma
Current Conditions -  °F | °C
As of 10:53 PM on Wednesday 26 Nov 2014 (Local Time) from KMKO Reporting Station
Clear Clear  
Wind Chill: 29°   Ceiling: Unl
Heat Index: 37°   Visibility: 10mi
Dew Point: 24°   Wind: 12mph
Humidity: 59%   Direction: 350°N
Pressure: 30.41"   Gusts: NA
Location:  35.47°N, 95.52°W
Report Text: KMKO 270453Z AUTO 35010KT 10SM CLR 03/M04 A3041 RMK AO2 PK WND 01027/0413 SLP297 T00281044
Loading
Personal Weather Stations






























Interactive Weather Map New forecast layout! Learn more

10-Day Weather Forecast

Advertisements
Track Severe Weather on mobile